Time;durP1;ratioP1;P1;durP2;ratioP2;P2;SDS_P1;SDS_P2;PMS_P1;PMS_P2;Temp;Humidity;BMP_temperature;BMP_pressure;BME280_temperature;BME280_humidity;BME280_pressure;Samples;Min_cycle;Max_cycle;Signal;HPM_P1;HPM_P2
2022/06/09 00:01:46;;;;;;;27.95;7.13;;;14.40;99.90;;;;;;5094311;28;20130;-71
2022/06/09 00:04:31;;;;;;;24.52;7.63;;;14.30;99.90;;;;;;5080048;28;20417;-71
2022/06/09 00:07:02;;;;;;;25.40;8.20;;;14.30;99.90;;;;;;5095461;28;20364;-71
2022/06/09 00:09:35;;;;;;;27.35;7.95;;;14.20;99.90;;;;;;5093050;28;20120;-71
2022/06/09 00:12:01;;;;;;;34.22;7.90;;;14.20;99.90;;;;;;5094465;28;20139;-71
2022/06/09 00:14:27;;;;;;;28.95;7.13;;;14.10;99.90;;;;;;5094433;28;20047;-70
2022/06/09 00:16:53;;;;;;;31.45;7.57;;;14.10;99.90;;;;;;5094927;28;20040;-71
2022/06/09 00:19:20;;;;;;;24.07;7.33;;;14.00;99.90;;;;;;5094142;28;20044;-71
2022/06/09 00:21:46;;;;;;;25.00;6.73;;;14.00;99.90;;;;;;5094473;28;20318;-70
2022/06/09 00:24:12;;;;;;;22.50;7.20;;;13.90;99.90;;;;;;5075663;28;20172;-71
2022/06/09 00:26:37;;;;;;;27.83;7.47;;;13.90;99.90;;;;;;5093323;28;20056;-70
2022/06/09 00:29:05;;;;;;;22.52;6.53;;;13.80;99.90;;;;;;5094009;28;20372;-71
2022/06/09 00:31:31;;;;;;;26.38;6.95;;;13.80;99.90;;;;;;5109504;28;20056;-70
2022/06/09 00:33:57;;;;;;;30.73;7.83;;;13.70;99.90;;;;;;5093309;28;20484;-71
2022/06/09 00:36:23;;;;;;;27.30;6.88;;;13.70;99.90;;;;;;5092800;28;20044;-72
2022/06/09 00:38:48;;;;;;;23.20;6.75;;;13.60;99.90;;;;;;5093699;28;20370;-69
2022/06/09 00:41:14;;;;;;;38.15;7.30;;;13.50;99.90;;;;;;5093177;28;20423;-70
2022/06/09 00:43:44;;;;;;;23.70;6.53;;;13.50;99.90;;;;;;5092565;28;20472;-70
2022/06/09 00:46:10;;;;;;;29.05;6.78;;;13.50;99.90;;;;;;5075891;28;20087;-71
2022/06/09 00:48:57;;;;;;;23.80;6.38;;;13.50;99.90;;;;;;5093963;28;20125;-70
2022/06/09 00:51:34;;;;;;;23.48;6.78;;;13.40;99.90;;;;;;5093160;28;20514;-70
2022/06/09 00:54:20;;;;;;;22.73;7.30;;;13.40;99.90;;;;;;5092944;28;20066;-71
2022/06/09 00:57:15;;;;;;;31.95;7.18;;;13.40;99.90;;;;;;5075873;28;20084;-70
2022/06/09 00:59:47;;;;;;;22.95;7.00;;;13.40;99.90;;;;;;5084979;28;20052;-71
2022/06/09 01:02:16;;;;;;;21.50;6.85;;;13.40;99.90;;;;;;5092088;28;20048;-71
2022/06/09 01:04:43;;;;;;;29.42;7.13;;;13.30;99.90;;;;;;5093234;28;20101;-71
2022/06/09 01:07:14;;;;;;;23.10;6.95;;;13.30;99.90;;;;;;5102711;28;20052;-70
2022/06/09 01:09:40;;;;;;;27.77;7.38;;;13.20;99.90;;;;;;5122823;28;20059;-71
2022/06/09 01:12:30;;;;;;;24.20;6.77;;;13.20;99.90;;;;;;5097041;28;20361;-70
2022/06/09 01:15:09;;;;;;;31.38;6.80;;;13.10;99.90;;;;;;5092750;28;20051;-70
2022/06/09 01:18:04;;;;;;;28.30;6.82;;;13.00;99.90;;;;;;5094411;28;20051;-71
2022/06/09 01:20:57;;;;;;;25.95;6.80;;;13.00;99.90;;;;;;5110092;28;20044;-70
2022/06/09 01:23:28;;;;;;;21.63;5.72;;;12.90;99.90;;;;;;5093121;28;20249;-70
2022/06/09 01:26:29;;;;;;;30.08;7.35;;;12.90;99.90;;;;;;5092237;28;20063;-70
2022/06/09 01:29:01;;;;;;;27.08;7.00;;;12.90;99.90;;;;;;5093532;28;20048;-70
2022/06/09 01:31:35;;;;;;;29.55;7.28;;;12.90;99.90;;;;;;5093096;28;20442;-69
2022/06/09 01:34:29;;;;;;;29.63;7.57;;;12.90;99.90;;;;;;5093374;28;20048;-70
2022/06/09 01:37:09;;;;;;;27.55;7.53;;;12.80;99.90;;;;;;5093331;28;20048;-69
2022/06/09 01:39:55;;;;;;;29.33;8.00;;;12.80;99.90;;;;;;5092544;28;20044;-70
2022/06/09 01:42:23;;;;;;;27.08;8.38;;;12.80;99.90;;;;;;5092646;28;20051;-72
2022/06/09 01:44:52;;;;;;;28.25;8.32;;;12.70;99.90;;;;;;5091860;28;20097;-71
2022/06/09 01:47:22;;;;;;;34.58;7.57;;;12.70;99.90;;;;;;5092594;28;20044;-70
2022/06/09 01:49:51;;;;;;;26.10;7.93;;;12.70;99.90;;;;;;5095921;28;20407;-70
2022/06/09 01:52:18;;;;;;;31.33;8.15;;;12.70;99.90;;;;;;5096227;28;20436;-70
2022/06/09 01:54:45;;;;;;;33.97;8.40;;;12.70;99.90;;;;;;5096232;28;20048;-71
2022/06/09 01:57:21;;;;;;;27.73;7.18;;;12.70;99.90;;;;;;5096823;28;20073;-72
2022/06/09 02:00:00;;;;;;;32.72;8.77;;;12.60;99.90;;;;;;5097504;28;20372;-70
2022/06/09 02:02:30;;;;;;;30.60;8.00;;;12.60;99.90;;;;;;5078811;28;20556;-70
2022/06/09 02:05:28;;;;;;;29.63;7.90;;;12.60;99.90;;;;;;5095108;28;20075;-70
2022/06/09 02:07:58;;;;;;;22.45;7.80;;;12.70;99.90;;;;;;5096475;28;20480;-70
2022/06/09 02:10:32;;;;;;;28.23;8.07;;;12.60;99.90;;;;;;5095365;28;20091;-71
2022/06/09 02:13:08;;;;;;;31.50;8.13;;;12.60;99.90;;;;;;5097373;28;20097;-69
2022/06/09 02:15:39;;;;;;;34.40;7.97;;;12.50;99.90;;;;;;5095091;28;20538;-71
2022/06/09 02:18:15;;;;;;;33.20;8.27;;;12.50;99.90;;;;;;5095992;28;20468;-71
2022/06/09 02:20:48;;;;;;;29.33;7.88;;;12.50;99.90;;;;;;5097058;28;20059;-70
2022/06/09 02:23:14;;;;;;;27.73;8.13;;;12.60;99.90;;;;;;5096016;28;20127;-70
2022/06/09 02:25:41;;;;;;;28.70;8.17;;;12.60;99.90;;;;;;5095603;28;20486;-70
2022/06/09 02:28:07;;;;;;;40.77;9.17;;;12.60;99.90;;;;;;5096047;28;20071;-70
2022/06/09 02:30:34;;;;;;;29.45;8.57;;;12.60;99.90;;;;;;5078163;28;20294;-70
2022/06/09 02:33:00;;;;;;;30.92;8.15;;;12.60;99.90;;;;;;5095989;28;20150;-71
2022/06/09 02:35:26;;;;;;;32.78;8.35;;;12.60;99.90;;;;;;5097360;28;20087;-70
2022/06/09 02:37:52;;;;;;;34.17;7.82;;;12.50;99.90;;;;;;5095822;28;20051;-69
2022/06/09 02:40:18;;;;;;;36.58;9.30;;;12.50;99.90;;;;;;5094380;28;20055;-71
2022/06/09 02:42:44;;;;;;;30.35;8.10;;;12.50;99.90;;;;;;5096300;28;20050;-69
2022/06/09 02:45:14;;;;;;;33.05;8.23;;;12.50;99.90;;;;;;5096377;28;20099;-71
2022/06/09 02:47:40;;;;;;;30.35;8.48;;;12.40;99.90;;;;;;5095987;28;20054;-70
2022/06/09 02:50:06;;;;;;;35.95;9.00;;;12.40;99.90;;;;;;5095768;28;20130;-70
2022/06/09 02:52:32;;;;;;;33.20;8.30;;;12.30;99.90;;;;;;5095959;28;20059;-70
2022/06/09 02:54:58;;;;;;;29.57;8.43;;;12.30;99.90;;;;;;5095677;28;20132;-69
2022/06/09 02:57:24;;;;;;;33.65;8.30;;;12.30;99.90;;;;;;5095715;28;20083;-69
2022/06/09 02:59:51;;;;;;;34.70;8.27;;;12.30;99.90;;;;;;5094779;28;20040;-69
2022/06/09 03:02:19;;;;;;;33.00;8.00;;;12.30;99.90;;;;;;5095559;28;20047;-70
2022/06/09 03:04:46;;;;;;;26.83;8.18;;;12.30;99.90;;;;;;5077596;28;20056;-70
2022/06/09 03:07:12;;;;;;;31.52;8.88;;;12.30;99.90;;;;;;5095413;28;20055;-72
2022/06/09 03:09:38;;;;;;;33.40;8.13;;;12.30;99.90;;;;;;5094256;28;20197;-70
2022/06/09 03:12:04;;;;;;;34.25;9.07;;;12.20;99.90;;;;;;5095499;28;20501;-70
2022/06/09 03:14:30;;;;;;;32.97;8.27;;;12.20;99.90;;;;;;5096907;28;20036;-70
2022/06/09 03:16:56;;;;;;;33.00;9.02;;;12.30;99.90;;;;;;5098991;28;20120;-70
2022/06/09 03:19:22;;;;;;;29.13;8.15;;;12.30;99.90;;;;;;5093855;28;20040;-70
2022/06/09 03:21:48;;;;;;;32.45;8.60;;;12.30;99.90;;;;;;5095356;28;20055;-70
2022/06/09 03:24:14;;;;;;;31.75;8.48;;;12.40;99.90;;;;;;5094915;28;20048;-70
2022/06/09 03:26:40;;;;;;;37.17;8.50;;;12.30;99.90;;;;;;5077574;28;20056;-69
2022/06/09 03:29:06;;;;;;;29.88;8.55;;;12.40;99.90;;;;;;5095293;28;20044;-69
2022/06/09 03:31:31;;;;;;;34.40;8.35;;;12.30;99.90;;;;;;5094332;28;20059;-69
2022/06/09 03:33:57;;;;;;;25.55;8.70;;;12.30;99.90;;;;;;5094036;28;20048;-71
2022/06/09 03:36:23;;;;;;;24.40;8.02;;;12.30;99.90;;;;;;5094156;28;20131;-71
2022/06/09 03:38:50;;;;;;;26.38;8.40;;;12.30;99.90;;;;;;5094986;28;20146;-71
2022/06/09 03:41:15;;;;;;;29.90;7.20;;;12.30;99.90;;;;;;5093562;28;20523;-72
2022/06/09 03:43:41;;;;;;;35.92;8.20;;;12.30;99.90;;;;;;5095669;28;20131;-71
2022/06/09 03:46:07;;;;;;;27.13;7.93;;;12.30;99.90;;;;;;5095280;28;20048;-70
2022/06/09 03:48:34;;;;;;;26.60;8.32;;;12.30;99.90;;;;;;5095755;28;20055;-71
2022/06/09 03:51:00;;;;;;;25.52;8.20;;;12.30;99.90;;;;;;5094124;28;20039;-68
2022/06/09 03:53:25;;;;;;;23.58;8.15;;;12.30;99.90;;;;;;5111355;28;20130;-70
2022/06/09 03:55:51;;;;;;;31.65;8.02;;;12.30;99.90;;;;;;5078033;28;20047;-68
2022/06/09 03:58:17;;;;;;;27.83;8.60;;;12.30;99.90;;;;;;5095098;28;20094;-71
2022/06/09 04:00:43;;;;;;;35.50;8.30;;;12.30;99.90;;;;;;5093751;28;20052;-70
2022/06/09 04:03:09;;;;;;;35.45;9.20;;;12.30;99.90;;;;;;5079420;28;20044;-70
2022/06/09 04:05:34;;;;;;;26.83;8.40;;;12.40;99.90;;;;;;5101015;28;20070;-70
2022/06/09 04:08:01;;;;;;;27.38;8.18;;;12.40;99.90;;;;;;5107310;28;20051;-69
2022/06/09 04:10:30;;;;;;;30.98;9.18;;;12.40;99.90;;;;;;5089065;28;20181;-69
2022/06/09 04:12:56;;;;;;;32.13;8.75;;;12.50;99.90;;;;;;5107579;28;20043;-69
2022/06/09 04:15:22;;;;;;;27.15;8.30;;;12.60;99.90;;;;;;5074773;28;20119;-71
2022/06/09 04:17:48;;;;;;;27.00;7.93;;;12.60;99.90;;;;;;5092344;28;20052;-69
2022/06/09 04:20:19;;;;;;;29.38;8.27;;;12.70;99.90;;;;;;5112625;28;20154;-70
2022/06/09 04:22:45;;;;;;;26.35;7.40;;;12.70;99.90;;;;;;5106653;28;20052;-70
2022/06/09 04:25:12;;;;;;;30.83;8.13;;;12.70;99.90;;;;;;5102306;28;20052;-70
2022/06/09 04:27:38;;;;;;;27.55;7.60;;;12.80;99.90;;;;;;5100141;28;20048;-70
2022/06/09 04:30:06;;;;;;;25.17;7.90;;;12.80;99.90;;;;;;5101473;28;20055;-70
2022/06/09 04:32:31;;;;;;;27.42;7.80;;;12.90;99.90;;;;;;5098045;28;20060;-70
2022/06/09 04:34:57;;;;;;;27.20;7.68;;;13.00;99.90;;;;;;5094814;28;20047;-70
2022/06/09 04:37:59;;;;;;;27.50;8.10;;;13.10;99.90;;;;;;5077892;28;20048;-70
2022/06/09 04:40:10;;;;;;;25.45;7.50;;;13.10;99.90;;;;;;5094201;28;20121;-70
2022/06/09 04:42:36;;;;;;;25.85;7.43;;;13.20;99.90;;;;;;5093934;28;20046;-69
2022/06/09 04:45:02;;;;;;;25.25;6.40;;;13.30;99.90;;;;;;5075493;28;20126;-70
2022/06/09 04:47:27;;;;;;;19.75;6.15;;;13.40;99.90;;;;;;5092539;28;20499;-71
2022/06/09 04:49:53;;;;;;;25.17;6.65;;;13.50;99.90;;;;;;5093433;28;20070;-69
2022/06/09 04:52:19;;;;;;;21.60;6.70;;;13.60;99.90;;;;;;5092475;28;20040;-70
2022/06/09 04:54:44;;;;;;;22.08;6.53;;;13.50;99.90;;;;;;5093195;28;20044;-71
2022/06/09 04:57:10;;;;;;;22.25;7.00;;;13.60;99.90;;;;;;5093618;28;20502;-69
2022/06/09 04:59:36;;;;;;;20.65;6.18;;;13.70;99.90;;;;;;5092476;28;20040;-72
2022/06/09 05:02:02;;;;;;;18.88;6.03;;;13.60;99.90;;;;;;5075973;28;20097;-70
2022/06/09 05:04:28;;;;;;;20.80;5.85;;;13.60;99.90;;;;;;5093103;28;20101;-70
2022/06/09 05:06:54;;;;;;;18.20;6.25;;;13.60;99.90;;;;;;5075969;28;20139;-69
2022/06/09 05:09:20;;;;;;;20.73;6.07;;;13.60;99.90;;;;;;5092162;28;20096;-70
2022/06/09 05:11:45;;;;;;;20.33;6.35;;;13.60;99.90;;;;;;5092662;28;20473;-69
2022/06/09 05:14:13;;;;;;;23.55;6.60;;;13.70;99.90;;;;;;5092166;28;20047;-70
2022/06/09 05:16:38;;;;;;;;;;;13.80;99.90;;;;;;5093659;28;20044;-69
2022/06/09 05:19:04;;;;;;;21.13;5.77;;;13.80;99.90;;;;;;5093033;28;20475;-71
2022/06/09 05:21:30;;;;;;;17.83;5.82;;;13.90;99.90;;;;;;5093091;28;20377;-72
2022/06/09 05:23:55;;;;;;;20.83;6.03;;;13.90;99.90;;;;;;5092667;28;20119;-72
2022/06/09 05:26:21;;;;;;;14.15;5.40;;;13.90;99.90;;;;;;5091875;28;20068;-71
2022/06/09 05:28:47;;;;;;;16.52;5.90;;;14.00;99.90;;;;;;5093174;28;20048;-71
2022/06/09 05:31:13;;;;;;;16.95;5.70;;;14.10;99.90;;;;;;5093012;28;20084;-70
2022/06/09 05:33:40;;;;;;;17.25;5.90;;;14.20;99.90;;;;;;5093136;28;20080;-71
2022/06/09 05:36:06;;;;;;;21.77;5.75;;;14.30;99.90;;;;;;5075320;28;20121;-69
2022/06/09 05:46:47;;;;;;;18.35;5.15;;;14.60;99.90;;;;;;5092366;28;20144;-70
2022/06/09 05:49:13;;;;;;;18.85;6.13;;;14.80;99.90;;;;;;5091573;28;20051;-70
2022/06/09 05:51:39;;;;;;;12.45;4.60;;;14.90;99.90;;;;;;5091701;28;20036;-70
2022/06/09 05:54:04;;;;;;;13.73;5.60;;;15.00;99.90;;;;;;5091370;28;20047;-69
2022/06/09 05:56:30;;;;;;;13.13;6.03;;;15.00;99.90;;;;;;5074659;28;20057;-69
2022/06/09 05:58:56;;;;;;;13.77;6.00;;;15.10;99.90;;;;;;5091427;28;20071;-70
2022/06/09 06:01:22;;;;;;;26.67;5.95;;;15.10;99.90;;;;;;5091703;28;20040;-70
2022/06/09 06:03:48;;;;;;;13.73;5.82;;;15.20;99.90;;;;;;5093257;28;20040;-70
2022/06/09 06:08:58;;;;;;;15.07;6.30;;;15.40;99.90;;;;;;5092144;28;20180;-72
2022/06/09 06:11:24;;;;;;;16.95;5.40;;;15.40;99.90;;;;;;5093475;28;20069;-70
2022/06/09 06:13:50;;;;;;;11.82;6.05;;;15.30;99.90;;;;;;5075848;28;20089;-71
2022/06/09 06:16:16;;;;;;;13.47;5.60;;;15.40;99.90;;;;;;5092020;28;20095;-70
2022/06/09 06:18:42;;;;;;;15.35;5.75;;;15.50;99.90;;;;;;5092540;28;20076;-71
2022/06/09 06:21:08;;;;;;;12.93;5.97;;;15.40;99.90;;;;;;5109594;28;20436;-69
2022/06/09 06:23:34;;;;;;;16.63;5.93;;;15.50;99.90;;;;;;5093345;28;20040;-70
2022/06/09 06:26:00;;;;;;;13.80;6.78;;;15.60;99.90;;;;;;5093161;28;20056;-69
2022/06/09 06:28:26;;;;;;;12.90;5.57;;;15.70;99.90;;;;;;5091864;28;20148;-69
2022/06/09 06:30:53;;;;;;;9.73;5.75;;;15.70;99.90;;;;;;5092620;28;20181;-71
2022/06/09 06:33:19;;;;;;;13.32;5.82;;;15.80;99.90;;;;;;5092626;28;20048;-71
2022/06/09 06:35:45;;;;;;;13.48;5.68;;;15.80;99.90;;;;;;5093028;28;20051;-71
2022/06/09 06:38:12;;;;;;;10.57;6.25;;;16.00;99.90;;;;;;5097152;28;20044;-69
2022/06/09 06:40:37;;;;;;;11.70;6.20;;;16.00;99.90;;;;;;5096335;28;20120;-69
2022/06/09 06:43:03;;;;;;;12.85;6.90;;;16.20;99.90;;;;;;5078861;28;20486;-71
2022/06/09 06:45:29;;;;;;;15.38;6.95;;;16.20;99.90;;;;;;5078142;28;20108;-69
2022/06/09 06:47:56;;;;;;;9.88;6.00;;;16.30;99.90;;;;;;5095486;28;20109;-71
2022/06/09 06:50:22;;;;;;;16.40;6.40;;;16.20;99.90;;;;;;5094665;28;20044;-71
2022/06/09 06:52:48;;;;;;;11.50;5.88;;;16.20;99.90;;;;;;5095806;28;20075;-70
2022/06/09 06:55:16;;;;;;;12.90;6.40;;;16.20;99.90;;;;;;5078161;28;20108;-69
2022/06/09 06:57:42;;;;;;;10.88;6.32;;;16.10;99.90;;;;;;5094897;28;20574;-70
2022/06/09 07:00:10;;;;;;;13.40;6.80;;;16.20;99.90;;;;;;5095818;28;20079;-70
2022/06/09 07:02:36;;;;;;;12.90;6.57;;;16.20;99.90;;;;;;5096514;28;20055;-70
2022/06/09 07:05:02;;;;;;;15.95;5.93;;;16.40;99.90;;;;;;5097200;28;20127;-69
2022/06/09 07:07:28;;;;;;;13.90;5.97;;;16.50;99.90;;;;;;5104338;28;20051;-71
2022/06/09 07:09:54;;;;;;;10.80;6.23;;;16.60;99.90;;;;;;5101005;28;20048;-70
2022/06/09 07:12:21;;;;;;;11.67;5.23;;;16.60;99.90;;;;;;5096453;28;20048;-71
2022/06/09 07:14:46;;;;;;;14.55;5.60;;;16.60;99.90;;;;;;5078052;28;20048;-70
2022/06/09 07:17:12;;;;;;;12.25;5.00;;;16.70;99.90;;;;;;5078351;28;20442;-69
2022/06/09 07:19:38;;;;;;;13.57;5.87;;;16.60;99.90;;;;;;5095727;28;20044;-70
2022/06/09 07:22:04;;;;;;;8.95;4.60;;;16.60;99.90;;;;;;5096636;28;20052;-70
2022/06/09 07:24:30;;;;;;;12.23;5.43;;;16.70;99.90;;;;;;5096107;28;20433;-71
2022/06/09 07:26:56;;;;;;;13.68;5.30;;;16.70;99.90;;;;;;5096507;28;20044;-70
2022/06/09 07:29:21;;;;;;;11.27;4.83;;;16.80;99.90;;;;;;5078349;28;20115;-70
2022/06/09 07:31:48;;;;;;;9.45;4.50;;;16.90;99.90;;;;;;5094581;28;20369;-70
2022/06/09 07:34:13;;;;;;;11.23;4.20;;;16.90;99.90;;;;;;5079352;28;20140;-70
2022/06/09 07:36:40;;;;;;;10.55;4.10;;;17.10;99.90;;;;;;5094708;28;20492;-71
2022/06/09 07:39:07;;;;;;;9.23;3.70;;;17.30;99.90;;;;;;5094437;28;20058;-70
2022/06/09 07:41:33;;;;;;;10.60;3.65;;;17.40;99.90;;;;;;5094098;28;20101;-70
2022/06/09 07:44:01;;;;;;;8.23;3.63;;;17.40;99.90;;;;;;5094085;28;20055;-71
2022/06/09 07:46:28;;;;;;;11.43;3.40;;;17.20;99.90;;;;;;5093628;28;20519;-69
2022/06/09 07:48:54;;;;;;;7.47;2.73;;;17.20;99.90;;;;;;5095129;28;20392;-71
2022/06/09 07:51:20;;;;;;;8.63;2.38;;;17.40;99.90;;;;;;5093789;28;20483;-69
2022/06/09 07:53:46;;;;;;;8.87;2.97;;;17.50;99.90;;;;;;5094875;28;20079;-69
2022/06/09 07:56:13;;;;;;;8.95;2.90;;;17.70;99.90;;;;;;5110731;28;20059;-70
2022/06/09 07:58:41;;;;;;;6.78;2.78;;;17.70;99.90;;;;;;5094401;28;20373;-71
2022/06/09 08:01:06;;;;;;;7.18;2.40;;;17.80;99.90;;;;;;5094341;28;20452;-69
2022/06/09 08:03:33;;;;;;;6.05;2.00;;;17.90;99.90;;;;;;5093741;28;20127;-72
2022/06/09 08:05:59;;;;;;;6.25;2.35;;;18.00;99.90;;;;;;5077056;28;20480;-68
2022/06/09 08:08:24;;;;;;;13.48;2.28;;;18.10;99.90;;;;;;5076398;28;20059;-71
2022/06/09 08:10:50;;;;;;;4.67;2.03;;;18.10;99.90;;;;;;5093249;28;20104;-72
2022/06/09 08:13:16;;;;;;;9.70;2.00;;;18.10;99.90;;;;;;5093085;28;20044;-71
2022/06/09 08:15:44;;;;;;;6.50;1.43;;;18.30;99.90;;;;;;5095271;28;20044;-70
2022/06/09 08:18:10;;;;;;;6.35;1.50;;;18.30;99.90;;;;;;5093765;28;20044;-72
2022/06/09 08:20:40;;;;;;;5.03;1.13;;;18.20;99.90;;;;;;5093837;28;20510;-70
2022/06/09 08:23:12;;;;;;;4.78;1.05;;;18.20;99.90;;;;;;5094852;28;20488;-71
2022/06/09 08:25:40;;;;;;;3.75;0.98;;;18.30;99.90;;;;;;5093648;28;20052;-72
2022/06/09 08:28:06;;;;;;;4.28;0.80;;;18.40;99.90;;;;;;5110557;28;20080;-71
2022/06/09 08:30:34;;;;;;;6.70;1.92;;;18.70;99.90;;;;;;5060421;28;20085;-70
2022/06/09 08:33:00;;;;;;;6.10;1.13;;;18.90;99.90;;;;;;5092796;28;20047;-71
2022/06/09 08:35:27;;;;;;;3.03;0.85;;;19.10;99.90;;;;;;5093115;28;20046;-71
2022/06/09 08:37:53;;;;;;;6.82;1.30;;;19.20;99.90;;;;;;5093426;28;20055;-72
2022/06/09 08:40:30;;;;;;;6.07;0.93;;;19.20;99.90;;;;;;5093497;28;20052;-72
2022/06/09 08:43:43;;;;;;;8.57;0.93;;;19.30;99.90;;;;;;5093264;28;20501;-71
2022/06/09 08:46:46;;;;;;;4.95;1.00;;;19.20;99.90;;;;;;5088383;28;20063;-70
2022/06/09 08:49:47;;;;;;;6.57;1.17;;;19.20;99.90;;;;;;5094273;28;20044;-71
2022/06/09 08:52:38;;;;;;;8.35;1.02;;;18.90;99.90;;;;;;5091977;28;20040;-71
2022/06/09 08:55:33;;;;;;;7.30;0.90;;;19.00;99.90;;;;;;5084605;28;20060;-71
2022/06/09 08:58:30;;;;;;;6.28;1.25;;;19.30;99.90;;;;;;5086921;28;20060;-70
2022/06/09 09:01:10;;;;;;;6.90;1.30;;;19.40;99.90;;;;;;5089082;28;20055;-70
2022/06/09 09:03:47;;;;;;;6.32;0.80;;;19.50;99.90;;;;;;5099382;28;20055;-71
2022/06/09 09:06:28;;;;;;;6.63;0.90;;;19.50;99.90;;;;;;5079950;28;20116;-72
2022/06/09 09:09:22;;;;;;;6.32;0.80;;;19.80;99.90;;;;;;5078120;28;20043;-73
2022/06/09 09:12:15;;;;;;;9.35;0.90;;;19.80;99.90;;;;;;5109886;28;20411;-71
2022/06/09 09:14:55;;;;;;;5.68;0.75;;;19.70;99.90;;;;;;5081334;28;20058;-73
2022/06/09 09:17:39;;;;;;;5.20;0.88;;;19.90;99.90;;;;;;5094282;28;20387;-72
2022/06/09 09:20:18;;;;;;;10.70;0.90;;;19.80;99.90;;;;;;5092162;28;20044;-71
2022/06/09 09:22:53;;;;;;;12.15;1.15;;;19.60;99.90;;;;;;5093251;28;20047;-70
2022/06/09 09:25:43;;;;;;;3.88;0.60;;;19.60;99.90;;;;;;5091247;28;20052;-70
2022/06/09 09:28:17;;;;;;;6.80;0.68;;;19.80;99.90;;;;;;5092298;28;20401;-71
2022/06/09 09:30:49;;;;;;;5.70;0.65;;;19.80;99.90;;;;;;5076045;28;20058;-71
2022/06/09 09:33:19;;;;;;;4.88;0.70;;;19.60;99.90;;;;;;5093035;28;20044;-71
2022/06/09 09:35:47;;;;;;;6.32;0.80;;;19.70;99.90;;;;;;5074969;28;20484;-71
2022/06/09 09:38:17;;;;;;;5.95;0.70;;;19.80;99.90;;;;;;5092710;28;20452;-73
2022/06/09 09:40:47;;;;;;;4.10;0.50;;;20.00;99.90;;;;;;5091671;28;20054;-71
2022/06/09 09:43:26;;;;;;;7.10;0.63;;;20.00;99.90;;;;;;5093007;28;20183;-70
2022/06/09 09:45:54;;;;;;;5.60;0.60;;;20.10;99.90;;;;;;5109543;28;20182;-72
2022/06/09 09:48:20;;;;;;;3.15;0.50;;;19.90;99.90;;;;;;5093072;28;20044;-70
2022/06/09 09:50:55;;;;;;;3.77;0.60;;;19.90;99.90;;;;;;5091695;28;20337;-72
2022/06/09 09:53:33;;;;;;;5.93;0.65;;;20.00;99.90;;;;;;5092433;28;20152;-71
2022/06/09 09:56:00;;;;;;;3.17;0.60;;;20.10;99.90;;;;;;5095585;28;20044;-71
2022/06/09 09:58:54;;;;;;;5.57;0.63;;;20.00;99.90;;;;;;5095105;28;20063;-72
2022/06/09 10:01:19;;;;;;;2.97;0.50;;;20.00;99.90;;;;;;5094407;28;20044;-71
2022/06/09 10:09:42;;;;;;;4.18;0.63;;;19.90;99.90;;;;;;5101087;28;20055;-71
2022/06/09 10:12:11;;;;;;;5.20;0.73;;;20.10;99.90;;;;;;5098034;28;20052;-72
2022/06/09 10:14:44;;;;;;;3.40;0.50;;;20.20;99.90;;;;;;5096112;28;20087;-71
2022/06/09 10:17:27;;;;;;;4.53;0.50;;;20.20;99.90;;;;;;5079645;28;20044;-70
2022/06/09 10:20:14;;;;;;;3.22;0.60;;;20.20;99.90;;;;;;5100635;28;20051;-72
2022/06/09 10:22:53;;;;;;;5.97;0.50;;;20.20;99.90;;;;;;5100777;28;20040;-71
2022/06/09 10:25:47;;;;;;;3.75;0.50;;;20.30;99.90;;;;;;5099519;28;20456;-71
2022/06/09 10:28:19;;;;;;;5.53;0.60;;;20.20;99.90;;;;;;5095105;28;20063;-72
2022/06/09 10:30:58;;;;;;;4.05;0.47;;;20.00;99.90;;;;;;5097725;28;20040;-72
2022/06/09 10:33:56;;;;;;;3.72;0.40;;;20.00;99.90;;;;;;5095906;28;20471;-73
2022/06/09 10:36:31;;;;;;;4.53;0.52;;;20.10;99.90;;;;;;5090769;28;20098;-72
2022/06/09 10:39:09;;;;;;;5.57;0.70;;;20.10;99.90;;;;;;5096447;28;20070;-72
2022/06/09 10:41:42;;;;;;;6.25;0.88;;;20.20;99.90;;;;;;5096663;28;20048;-70
2022/06/09 10:44:23;;;;;;;4.35;0.63;;;20.20;99.90;;;;;;5096560;28;20101;-70
2022/06/09 10:56:04;;;;;;;5.15;0.55;;;20.50;99.90;;;;;;5095379;28;20139;-71
2022/06/09 10:58:31;;;;;;;3.75;0.40;;;20.70;99.90;;;;;;5077671;28;20514;-72
2022/06/09 11:00:58;;;;;;;4.45;0.40;;;20.40;99.90;;;;;;5098772;28;20544;-72
2022/06/09 11:03:29;;;;;;;5.20;0.45;;;20.60;99.90;;;;;;5099184;28;20164;-73
2022/06/09 11:05:59;;;;;;;3.70;0.43;;;20.40;99.90;;;;;;5078811;28;20143;-72
2022/06/09 11:08:30;;;;;;;3.92;0.45;;;20.60;99.90;;;;;;5094303;28;20495;-72
2022/06/09 11:11:04;;;;;;;5.70;0.40;;;20.60;99.90;;;;;;5094228;28;20044;-72
2022/06/09 11:13:47;;;;;;;4.53;0.40;;;20.70;99.90;;;;;;5095590;28;20131;-72
2022/06/09 11:16:40;;;;;;;1.63;0.30;;;20.70;99.90;;;;;;5077624;28;20105;-72
2022/06/09 11:19:26;;;;;;;4.15;0.43;;;20.80;99.90;;;;;;5078315;28;20048;-72
2022/06/09 11:22:09;;;;;;;3.20;0.40;;;20.80;99.90;;;;;;5093443;28;20048;-72
2022/06/09 11:24:47;;;;;;;3.58;0.35;;;20.90;99.90;;;;;;5095086;28;20056;-72
2022/06/09 11:27:22;;;;;;;3.25;0.50;;;20.70;99.90;;;;;;5113494;28;20047;-72
2022/06/09 11:29:48;;;;;;;5.35;0.40;;;20.80;99.90;;;;;;5097486;28;20127;-73
2022/06/09 11:32:25;;;;;;;5.67;0.70;;;20.80;99.90;;;;;;5095083;28;20448;-73
2022/06/09 11:35:20;;;;;;;4.47;0.40;;;20.80;99.90;;;;;;5096579;28;20044;-73
2022/06/09 11:37:51;;;;;;;5.07;0.55;;;20.80;99.90;;;;;;5096665;28;20376;-71
2022/06/09 11:40:32;;;;;;;6.07;0.60;;;20.90;99.90;;;;;;5093654;28;20083;-71
2022/06/09 11:43:21;;;;;;;5.88;0.77;;;21.00;99.90;;;;;;5095587;28;20179;-72
2022/06/09 11:45:56;;;;;;;4.78;0.50;;;20.90;99.90;;;;;;5078737;28;20044;-72
2022/06/09 11:48:29;;;;;;;5.43;0.60;;;21.10;99.90;;;;;;5095163;28;20105;-72
2022/06/09 11:50:56;;;;;;;8.43;0.80;;;21.20;99.90;;;;;;5095395;28;20044;-73
2022/06/09 11:53:23;;;;;;;;;;;21.30;99.90;;;;;;5095196;28;20047;-71
2022/06/09 11:55:59;;;;;;;7.60;0.95;;;21.50;99.90;;;;;;5096175;28;19989;-72
2022/06/09 11:58:34;;;;;;;3.53;0.73;;;21.40;99.90;;;;;;5079618;28;20059;-73
2022/06/09 12:01:31;;;;;;;7.88;0.60;;;21.10;99.90;;;;;;5099728;28;20482;-72
2022/06/09 12:04:18;;;;;;;6.43;0.70;;;21.20;99.90;;;;;;5096272;28;20408;-71
2022/06/09 12:07:18;;;;;;;4.30;0.70;;;21.10;99.90;;;;;;5078179;28;20044;-72
2022/06/09 12:09:54;;;;;;;6.70;0.70;;;21.10;99.90;;;;;;5097322;28;20083;-71
2022/06/09 12:12:26;;;;;;;;;;;21.00;99.90;;;;;;5095043;28;20043;-71
2022/06/09 12:15:19;;;;;;;5.38;0.77;;;20.80;99.90;;;;;;5094989;28;20229;-71
2022/06/09 12:18:02;;;;;;;4.18;0.60;;;20.50;99.90;;;;;;5077615;28;20376;-72
2022/06/09 12:20:32;;;;;;;6.97;0.70;;;20.60;99.90;;;;;;5077420;28;20055;-72
2022/06/09 12:23:22;;;;;;;5.70;0.68;;;20.40;99.90;;;;;;5095379;28;20040;-73
2022/06/09 12:26:12;;;;;;;7.80;0.60;;;20.30;99.90;;;;;;5094779;28;20091;-72
2022/06/09 12:28:52;;;;;;;7.80;0.70;;;20.40;99.90;;;;;;5056539;28;20438;-73
2022/06/09 12:31:17;;;;;;;6.00;0.80;;;20.30;99.90;;;;;;5076609;28;20424;-72
2022/06/09 12:34:11;;;;;;;5.27;1.00;;;20.60;99.90;;;;;;5093378;28;20044;-72
2022/06/09 12:36:56;;;;;;;8.35;1.05;;;20.90;99.90;;;;;;5094935;28;20103;-72
2022/06/09 12:39:47;;;;;;;5.82;0.88;;;21.10;99.90;;;;;;5095762;28;20569;-72
2022/06/09 12:42:15;;;;;;;7.90;1.05;;;20.90;99.90;;;;;;5094144;28;20048;-73
2022/06/09 12:45:06;;;;;;;9.57;1.00;;;20.80;99.90;;;;;;5094660;28;20047;-72
2022/06/09 12:47:33;;;;;;;8.90;1.50;;;21.00;99.90;;;;;;5093782;28;20052;-73
2022/06/09 12:50:03;;;;;;;7.88;1.00;;;20.70;99.90;;;;;;5094394;28;20063;-72
2022/06/09 12:52:38;;;;;;;5.53;0.90;;;20.70;99.90;;;;;;5093574;28;20063;-71
2022/06/09 12:55:29;;;;;;;3.60;0.60;;;20.90;99.90;;;;;;5093743;28;20055;-73
2022/06/09 12:58:06;;;;;;;7.50;0.90;;;21.10;99.90;;;;;;5095160;28;20052;-71
2022/06/09 13:00:39;;;;;;;7.40;1.15;;;20.90;99.90;;;;;;5093561;28;20051;-72
2022/06/09 13:03:23;;;;;;;7.88;1.00;;;20.90;99.90;;;;;;5094234;28;20145;-73
2022/06/09 13:05:49;;;;;;;5.50;0.90;;;21.20;99.90;;;;;;5093507;28;20475;-73
2022/06/09 13:08:19;;;;;;;7.32;0.98;;;21.20;99.00;;;;;;5094733;28;20054;-71
2022/06/09 13:10:55;;;;;;;6.75;0.90;;;21.20;99.90;;;;;;5099528;28;20048;-72
2022/06/09 13:13:47;;;;;;;7.18;1.17;;;21.50;99.30;;;;;;5096387;28;20582;-73
2022/06/09 13:16:14;;;;;;;6.88;1.23;;;21.50;98.50;;;;;;5093587;28;20492;-73
2022/06/09 13:18:47;;;;;;;8.05;1.05;;;21.40;99.70;;;;;;5095610;28;20060;-71
2022/06/09 13:21:22;;;;;;;9.52;1.00;;;21.40;98.30;;;;;;5093630;28;20052;-72
2022/06/09 13:23:54;;;;;;;8.38;1.05;;;21.40;99.10;;;;;;5093472;28;20117;-71
2022/06/09 13:26:32;;;;;;;8.48;1.02;;;21.50;98.50;;;;;;5095271;28;20122;-72
2022/06/09 13:29:00;;;;;;;4.18;0.73;;;21.50;97.20;;;;;;5098649;28;20492;-70
2022/06/09 13:31:38;;;;;;;9.18;1.20;;;21.30;95.70;;;;;;5093814;28;20044;-74